PWSweather.com
Personal Weather Stations
Station Observations
IPODRAVI2
Croatia, Trnovec BartoloveckiHR

CroatiaTrnovec BartoloveckiHR

Lat: 46.2947, Lon: 16.3989

Elevation: 535

Station Type: Davis Vantage Pro2 plus

http://www.pljusak.com/trnovec1/wx.html

High Low Average
Temperature 70.4°F21.3°C 60.4°F15.8°C 65.9°F18.8°C
Dew Point 63.8°F17.7°C 57.6°F14.2°C 61.0°F16.1°C
Winds 11.5 mph 18.5 kmh Calm Calm 3.0 mph SSW4.8 kmh SSW
Wind Gusts 18.4 mph29.6 kmh -- 5.0 mph8.0 kmh
Humidity 94% 72% 84%
Pressure 30.06 in1017.9 mb 29.94 in1013.9 mb -
Precipitation 0.24 in6.1 mm - -
Hour Temp Dew Point Humidity Winds Wind Gusts Pressure Precip Precip Rate Daily Precip Total
12:00 AM 67.8°F19.9°C 63.8°F17.7°C 87% Calm Calm 3.5 mph5.6 kmh 29.96 in1014.6 mb - 0.00 in0.0 mm 0.00 in0.0 mm
12:05 AM 67.7°F19.8°C 63.7°F17.6°C 87% Calm Calm 3.5 mph5.6 kmh 29.96 in1014.6 mb - 0.00 in0.0 mm 0.00 in0.0 mm
12:10 AM 67.5°F19.7°C 63.5°F17.5°C 87% Calm Calm -- 29.95 in1014.2 mb - 0.00 in0.0 mm 0.00 in0.0 mm
12:15 AM 67.4°F19.7°C 63.4°F17.4°C 87% 1.2 mph NW1.9 kmh NW 3.5 mph5.6 kmh 29.95 in1014.2 mb - 0.00 in0.0 mm 0.00 in0.0 mm
12:20 AM 67.3°F19.6°C 63.3°F17.4°C 87% 1.2 mph NW1.9 kmh NW 3.5 mph5.6 kmh 29.95 in1014.2 mb - 0.00 in0.0 mm 0.00 in0.0 mm
12:25 AM 67.2°F19.6°C 63.6°F17.6°C 88% 2.3 mph WNW3.7 kmh WNW 4.6 mph7.4 kmh 29.95 in1014.2 mb - 0.00 in0.0 mm 0.00 in0.0 mm
12:30 AM 67.2°F19.6°C 63.2°F17.3°C 87% 2.3 mph WNW3.7 kmh WNW 3.5 mph5.6 kmh 29.95 in1014.2 mb - 0.00 in0.0 mm 0.00 in0.0 mm
12:35 AM 67.3°F19.6°C 63.3°F17.4°C 87% Calm Calm -- 29.95 in1014.2 mb - 0.00 in0.0 mm 0.00 in0.0 mm
12:40 AM 67.5°F19.7°C 63.5°F17.5°C 87% 1.2 mph WNW1.9 kmh WNW 3.5 mph5.6 kmh 29.95 in1014.2 mb - 0.00 in0.0 mm 0.00 in0.0 mm
12:45 AM 67.6°F19.8°C 63.2°F17.3°C 86% Calm Calm -- 29.95 in1014.2 mb - 0.00 in0.0 mm 0.00 in0.0 mm
12:50 AM 67.6°F19.8°C 63.3°F17.4°C 86% Calm Calm -- 29.95 in1014.2 mb - 0.00 in0.0 mm 0.00 in0.0 mm
12:55 AM 67.7°F19.8°C 63.4°F17.4°C 86% Calm Calm 2.3 mph3.7 kmh 29.95 in1014.2 mb - 0.00 in0.0 mm 0.00 in0.0 mm
01:00 AM 67.8°F19.9°C 63.5°F17.5°C 86% 1.2 mph NW1.9 kmh NW 2.3 mph3.7 kmh 29.95 in1014.2 mb - 0.00 in0.0 mm 0.00 in0.0 mm
01:05 AM 67.7°F19.8°C 63.4°F17.4°C 86% 1.2 mph NW1.9 kmh NW 1.2 mph1.9 kmh 29.95 in1014.2 mb - 0.00 in0.0 mm 0.00 in0.0 mm
01:10 AM 67.7°F19.8°C 63.7°F17.6°C 87% 2.3 mph NW3.7 kmh NW 3.5 mph5.6 kmh 29.96 in1014.6 mb - 0.00 in0.0 mm 0.00 in0.0 mm
01:15 AM 67.6°F19.8°C 63.6°F17.6°C 87% Calm Calm 2.3 mph3.7 kmh 29.96 in1014.6 mb - 0.00 in0.0 mm 0.00 in0.0 mm
01:20 AM 67.7°F19.8°C 63.7°F17.6°C 87% Calm Calm 2.3 mph3.7 kmh 29.96 in1014.6 mb - 0.00 in0.0 mm 0.00 in0.0 mm
01:25 AM 67.7°F19.8°C 63.3°F17.4°C 86% Calm Calm -- 29.95 in1014.2 mb - 0.00 in0.0 mm 0.00 in0.0 mm
01:30 AM 67.6°F19.8°C 63.3°F17.4°C 86% Calm Calm -- 29.95 in1014.2 mb - 0.00 in0.0 mm 0.00 in0.0 mm
01:35 AM 67.7°F19.8°C 63.3°F17.4°C 86% 2.3 mph NW3.7 kmh NW 3.5 mph5.6 kmh 29.95 in1014.2 mb - 0.00 in0.0 mm 0.00 in0.0 mm
01:40 AM 67.7°F19.8°C 63.4°F17.4°C 86% 1.2 mph NW1.9 kmh NW 1.2 mph1.9 kmh 29.95 in1014.2 mb - 0.00 in0.0 mm 0.00 in0.0 mm
01:45 AM 67.7°F19.8°C 63.4°F17.4°C 86% Calm Calm 1.2 mph1.9 kmh 29.95 in1014.2 mb - 0.00 in0.0 mm 0.00 in0.0 mm
01:50 AM 67.7°F19.8°C 63.4°F17.4°C 86% Calm Calm -- 29.95 in1014.2 mb - 0.00 in0.0 mm 0.00 in0.0 mm
01:55 AM 67.7°F19.8°C 63.4°F17.4°C 86% 2.3 mph NW3.7 kmh NW 3.5 mph5.6 kmh 29.95 in1014.2 mb - 0.00 in0.0 mm 0.00 in0.0 mm
02:00 AM 67.6°F19.8°C 63.6°F17.6°C 87% Calm Calm -- 29.95 in1014.2 mb - 0.00 in0.0 mm 0.00 in0.0 mm
02:05 AM 67.6°F19.8°C 63.3°F17.4°C 86% Calm Calm -- 29.95 in1014.2 mb - 0.00 in0.0 mm 0.00 in0.0 mm
02:10 AM 67.6°F19.8°C 63.3°F17.4°C 86% Calm Calm -- 29.95 in1014.2 mb - 0.00 in0.0 mm 0.00 in0.0 mm
02:15 AM 67.7°F19.8°C 63.4°F17.4°C 86% 1.2 mph NW1.9 kmh NW 2.3 mph3.7 kmh 29.95 in1014.2 mb - 0.00 in0.0 mm 0.00 in0.0 mm
02:20 AM 67.7°F19.8°C 63.4°F17.4°C 86% Calm Calm 3.5 mph5.6 kmh 29.95 in1014.2 mb - 0.00 in0.0 mm 0.00 in0.0 mm
02:25 AM 67.8°F19.9°C 63.1°F17.3°C 85% 1.2 mph N1.9 kmh N 3.5 mph5.6 kmh 29.94 in1013.9 mb - 0.00 in0.0 mm 0.00 in0.0 mm
02:30 AM 67.8°F19.9°C 62.8°F17.1°C 84% 3.5 mph NNW5.6 kmh NNW 3.5 mph5.6 kmh 29.95 in1014.2 mb - 0.00 in0.0 mm 0.00 in0.0 mm
02:35 AM 67.8°F19.9°C 62.8°F17.1°C 84% 1.2 mph N1.9 kmh N 3.5 mph5.6 kmh 29.95 in1014.2 mb - 0.00 in0.0 mm 0.00 in0.0 mm
02:40 AM 67.8°F19.9°C 62.8°F17.1°C 84% Calm Calm 2.3 mph3.7 kmh 29.94 in1013.9 mb - 0.00 in0.0 mm 0.00 in0.0 mm
02:45 AM 67.8°F19.9°C 62.4°F16.9°C 83% Calm Calm -- 29.94 in1013.9 mb - 0.00 in0.0 mm 0.00 in0.0 mm
02:50 AM 67.8°F19.9°C 62.8°F17.1°C 84% 2.3 mph N3.7 kmh N 2.3 mph3.7 kmh 29.95 in1014.2 mb - 0.00 in0.0 mm 0.00 in0.0 mm
02:55 AM 67.7°F19.8°C 62.7°F17.1°C 84% 1.2 mph N1.9 kmh N 3.5 mph5.6 kmh 29.95 in1014.2 mb - 0.00 in0.0 mm 0.00 in0.0 mm
03:00 AM 67.7°F19.8°C 62.7°F17.1°C 84% 1.2 mph N1.9 kmh N 3.5 mph5.6 kmh 29.95 in1014.2 mb - 0.00 in0.0 mm 0.00 in0.0 mm
03:05 AM 67.6°F19.8°C 62.6°F17.0°C 84% 3.5 mph NNE5.6 kmh NNE 4.6 mph7.4 kmh 29.94 in1013.9 mb - 0.00 in0.0 mm 0.00 in0.0 mm
03:10 AM 67.5°F19.7°C 62.5°F16.9°C 84% 3.5 mph NNE5.6 kmh NNE 3.5 mph5.6 kmh 29.94 in1013.9 mb - 0.00 in0.0 mm 0.00 in0.0 mm
03:15 AM 67.4°F19.7°C 62.1°F16.7°C 83% 4.6 mph NNE7.4 kmh NNE 6.9 mph11.1 kmh 29.94 in1013.9 mb - 0.00 in0.0 mm 0.00 in0.0 mm
03:20 AM 67.2°F19.6°C 61.9°F16.6°C 83% 4.6 mph NNE7.4 kmh NNE 11.5 mph18.5 kmh 29.94 in1013.9 mb - 0.00 in0.0 mm 0.00 in0.0 mm
03:25 AM 67.1°F19.5°C 61.8°F16.6°C 83% 3.5 mph NNE5.6 kmh NNE 5.8 mph9.3 kmh 29.94 in1013.9 mb - 0.00 in0.0 mm 0.00 in0.0 mm
03:30 AM 67.0°F19.4°C 62.0°F16.7°C 84% 4.6 mph NE7.4 kmh NE 5.8 mph9.3 kmh 29.95 in1014.2 mb - 0.00 in0.0 mm 0.00 in0.0 mm
03:35 AM 67.0°F19.4°C 62.0°F16.7°C 84% 2.3 mph NE3.7 kmh NE 4.6 mph7.4 kmh 29.95 in1014.2 mb - 0.00 in0.0 mm 0.00 in0.0 mm
03:40 AM 67.0°F19.4°C 62.0°F16.7°C 84% 2.3 mph NE3.7 kmh NE 3.5 mph5.6 kmh 29.95 in1014.2 mb - 0.00 in0.0 mm 0.00 in0.0 mm
03:45 AM 66.9°F19.4°C 61.9°F16.6°C 84% 1.2 mph N1.9 kmh N 2.3 mph3.7 kmh 29.95 in1014.2 mb - 0.00 in0.0 mm 0.00 in0.0 mm
03:50 AM 67.0°F19.4°C 62.0°F16.7°C 84% Calm Calm -- 29.95 in1014.2 mb - 0.00 in0.0 mm 0.00 in0.0 mm
03:55 AM 67.0°F19.4°C 62.3°F16.8°C 85% 1.2 mph N1.9 kmh N 1.2 mph1.9 kmh 29.95 in1014.2 mb - 0.00 in0.0 mm 0.00 in0.0 mm
04:00 AM 67.0°F19.4°C 62.3°F16.8°C 85% Calm Calm 2.3 mph3.7 kmh 29.95 in1014.2 mb - 0.00 in0.0 mm 0.00 in0.0 mm
04:05 AM 67.0°F19.4°C 62.3°F16.8°C 85% Calm Calm -- 29.95 in1014.2 mb - 0.00 in0.0 mm 0.00 in0.0 mm
04:10 AM 67.1°F19.5°C 62.1°F16.7°C 84% 1.2 mph N1.9 kmh N 3.5 mph5.6 kmh 29.95 in1014.2 mb - 0.00 in0.0 mm 0.00 in0.0 mm
04:15 AM 67.2°F19.6°C 62.2°F16.8°C 84% Calm Calm -- 29.95 in1014.2 mb - 0.00 in0.0 mm 0.00 in0.0 mm
04:20 AM 67.2°F19.6°C 62.2°F16.8°C 84% Calm Calm -- 29.95 in1014.2 mb - 0.00 in0.0 mm 0.00 in0.0 mm
04:25 AM 67.3°F19.6°C 62.3°F16.8°C 84% Calm Calm 2.3 mph3.7 kmh 29.95 in1014.2 mb - 0.00 in0.0 mm 0.00 in0.0 mm
04:30 AM 67.3°F19.6°C 61.9°F16.6°C 83% Calm Calm -- 29.95 in1014.2 mb - 0.00 in0.0 mm 0.00 in0.0 mm
04:35 AM 67.3°F19.6°C 62.0°F16.7°C 83% 1.2 mph NNE1.9 kmh NNE 3.5 mph5.6 kmh 29.95 in1014.2 mb - 0.00 in0.0 mm 0.00 in0.0 mm
04:40 AM 67.3°F19.6°C 62.0°F16.7°C 83% 3.5 mph NNE5.6 kmh NNE 4.6 mph7.4 kmh 29.95 in1014.2 mb - 0.00 in0.0 mm 0.00 in0.0 mm
04:45 AM 67.2°F19.6°C 62.2°F16.8°C 84% 2.3 mph NNE3.7 kmh NNE 3.5 mph5.6 kmh 29.95 in1014.2 mb - 0.00 in0.0 mm 0.00 in0.0 mm
04:50 AM 67.2°F19.6°C 62.2°F16.8°C 84% 2.3 mph N3.7 kmh N 3.5 mph5.6 kmh 29.95 in1014.2 mb - 0.00 in0.0 mm 0.00 in0.0 mm
04:55 AM 67.1°F19.5°C 62.1°F16.7°C 84% 2.3 mph N3.7 kmh N 3.5 mph5.6 kmh 29.95 in1014.2 mb - 0.00 in0.0 mm 0.00 in0.0 mm
05:00 AM 67.1°F19.5°C 62.1°F16.7°C 84% 2.3 mph N3.7 kmh N 3.5 mph5.6 kmh 29.95 in1014.2 mb - 0.00 in0.0 mm 0.00 in0.0 mm
05:05 AM 67.1°F19.5°C 62.1°F16.7°C 84% 4.6 mph N7.4 kmh N 6.9 mph11.1 kmh 29.95 in1014.2 mb - 0.00 in0.0 mm 0.00 in0.0 mm
05:10 AM 67.1°F19.5°C 62.4°F16.9°C 85% 3.5 mph NE5.6 kmh NE 6.9 mph11.1 kmh 29.95 in1014.2 mb - 0.00 in0.0 mm 0.00 in0.0 mm
05:15 AM 67.1°F19.5°C 62.4°F16.9°C 85% 4.6 mph NE7.4 kmh NE 8.1 mph13.0 kmh 29.96 in1014.6 mb - 0.00 in0.0 mm 0.00 in0.0 mm
05:20 AM 67.0°F19.4°C 62.3°F16.8°C 85% 4.6 mph N7.4 kmh N 5.8 mph9.3 kmh 29.96 in1014.6 mb - 0.00 in0.0 mm 0.00 in0.0 mm
05:25 AM 66.9°F19.4°C 62.6°F17.0°C 86% 1.2 mph NNE1.9 kmh NNE 3.5 mph5.6 kmh 29.96 in1014.6 mb - 0.00 in0.0 mm 0.00 in0.0 mm
05:30 AM 66.8°F19.3°C 62.8°F17.1°C 87% 2.3 mph NNE3.7 kmh NNE 4.6 mph7.4 kmh 29.95 in1014.2 mb - 0.00 in0.0 mm 0.00 in0.0 mm
05:35 AM 66.8°F19.3°C 62.5°F16.9°C 86% 1.2 mph NE1.9 kmh NE 3.5 mph5.6 kmh 29.95 in1014.2 mb - 0.00 in0.0 mm 0.00 in0.0 mm
05:40 AM 66.7°F19.3°C 62.4°F16.9°C 86% 2.3 mph NE3.7 kmh NE 3.5 mph5.6 kmh 29.95 in1014.2 mb - 0.00 in0.0 mm 0.00 in0.0 mm
05:45 AM 66.8°F19.3°C 62.5°F16.9°C 86% 2.3 mph NE3.7 kmh NE 3.5 mph5.6 kmh 29.95 in1014.2 mb - 0.00 in0.0 mm 0.00 in0.0 mm
05:50 AM 67.0°F19.4°C 62.7°F17.1°C 86% 3.5 mph NNW5.6 kmh NNW 3.5 mph5.6 kmh 29.95 in1014.2 mb - 0.00 in0.0 mm 0.00 in0.0 mm
05:55 AM 67.2°F19.6°C 62.9°F17.2°C 86% 2.3 mph NNW3.7 kmh NNW 3.5 mph5.6 kmh 29.95 in1014.2 mb - 0.00 in0.0 mm 0.00 in0.0 mm
06:00 AM 67.5°F19.7°C 63.2°F17.3°C 86% 3.5 mph NW5.6 kmh NW 4.6 mph7.4 kmh 29.95 in1014.2 mb - 0.00 in0.0 mm 0.00 in0.0 mm
06:05 AM 67.6°F19.8°C 62.9°F17.2°C 85% 4.6 mph NW7.4 kmh NW 5.8 mph9.3 kmh 29.96 in1014.6 mb - 0.00 in0.0 mm 0.00 in0.0 mm
06:10 AM 67.7°F19.8°C 63.0°F17.2°C 85% 4.6 mph NNW7.4 kmh NNW 8.1 mph13.0 kmh 29.96 in1014.6 mb - 0.00 in0.0 mm 0.00 in0.0 mm
06:15 AM 67.8°F19.9°C 62.8°F17.1°C 84% 3.5 mph NW5.6 kmh NW 8.1 mph13.0 kmh 29.96 in1014.6 mb - 0.00 in0.0 mm 0.00 in0.0 mm
06:20 AM 67.9°F19.9°C 62.9°F17.2°C 84% 3.5 mph NW5.6 kmh NW 6.9 mph11.1 kmh 29.97 in1014.9 mb - 0.00 in0.0 mm 0.00 in0.0 mm
06:25 AM 67.9°F19.9°C 62.5°F16.9°C 83% 5.8 mph NW9.3 kmh NW 8.1 mph13.0 kmh 29.96 in1014.6 mb - 0.00 in0.0 mm 0.00 in0.0 mm
06:30 AM 67.8°F19.9°C 62.8°F17.1°C 84% 3.5 mph N5.6 kmh N 4.6 mph7.4 kmh 29.96 in1014.6 mb - 0.00 in0.0 mm 0.00 in0.0 mm
06:35 AM 67.7°F19.8°C 62.4°F16.9°C 83% 3.5 mph NE5.6 kmh NE 9.2 mph14.8 kmh 29.96 in1014.6 mb - 0.00 in0.0 mm 0.00 in0.0 mm
06:40 AM 67.8°F19.9°C 62.1°F16.7°C 82% 5.8 mph ENE9.3 kmh ENE 11.5 mph18.5 kmh 29.95 in1014.2 mb - 0.00 in0.0 mm 0.00 in0.0 mm
06:45 AM 68.2°F20.1°C 62.2°F16.8°C 81% 4.6 mph NE7.4 kmh NE 9.2 mph14.8 kmh 29.96 in1014.6 mb - 0.00 in0.0 mm 0.00 in0.0 mm
06:50 AM 68.7°F20.4°C 62.3°F16.8°C 80% 2.3 mph NE3.7 kmh NE 9.2 mph14.8 kmh 29.97 in1014.9 mb - 0.00 in0.0 mm 0.00 in0.0 mm
06:55 AM 68.9°F20.5°C 62.1°F16.7°C 79% 4.6 mph ENE7.4 kmh ENE 4.6 mph7.4 kmh 29.97 in1014.9 mb - 0.00 in0.0 mm 0.00 in0.0 mm
07:00 AM 68.9°F20.5°C 61.8°F16.6°C 78% 4.6 mph NE7.4 kmh NE 9.2 mph14.8 kmh 29.97 in1014.9 mb - 0.00 in0.0 mm 0.00 in0.0 mm
07:05 AM 68.9°F20.5°C 62.1°F16.7°C 79% 3.5 mph NE5.6 kmh NE 4.6 mph7.4 kmh 29.98 in1015.2 mb - 0.00 in0.0 mm 0.00 in0.0 mm
07:10 AM 68.9°F20.5°C 61.7°F16.5°C 78% 4.6 mph NE7.4 kmh NE 6.9 mph11.1 kmh 29.98 in1015.2 mb - 0.00 in0.0 mm 0.00 in0.0 mm
07:15 AM 68.8°F20.4°C 62.0°F16.7°C 79% 2.3 mph NE3.7 kmh NE 3.5 mph5.6 kmh 29.98 in1015.2 mb - 0.00 in0.0 mm 0.00 in0.0 mm
07:20 AM 68.8°F20.4°C 62.4°F16.9°C 80% 1.2 mph N1.9 kmh N 3.5 mph5.6 kmh 29.98 in1015.2 mb - 0.00 in0.0 mm 0.00 in0.0 mm
07:25 AM 68.7°F20.4°C 62.3°F16.8°C 80% Calm Calm 2.3 mph3.7 kmh 29.98 in1015.2 mb - 0.00 in0.0 mm 0.00 in0.0 mm
07:30 AM 68.8°F20.4°C 62.8°F17.1°C 81% Calm Calm 3.5 mph5.6 kmh 29.98 in1015.2 mb - 0.00 in0.0 mm 0.00 in0.0 mm
07:35 AM 68.9°F20.5°C 62.8°F17.1°C 81% 3.5 mph NE5.6 kmh NE 4.6 mph7.4 kmh 29.98 in1015.2 mb - 0.00 in0.0 mm 0.00 in0.0 mm
07:40 AM 68.8°F20.4°C 62.4°F16.9°C 80% 2.3 mph NE3.7 kmh NE 4.6 mph7.4 kmh 29.98 in1015.2 mb - 0.00 in0.0 mm 0.00 in0.0 mm
07:45 AM 68.8°F20.4°C 62.7°F17.1°C 81% 2.3 mph NE3.7 kmh NE 3.5 mph5.6 kmh 29.98 in1015.2 mb - 0.00 in0.0 mm 0.00 in0.0 mm
07:50 AM 68.9°F20.5°C 62.4°F16.9°C 80% 3.5 mph NE5.6 kmh NE 5.8 mph9.3 kmh 29.98 in1015.2 mb - 0.00 in0.0 mm 0.00 in0.0 mm
07:55 AM 68.9°F20.5°C 62.8°F17.1°C 81% 2.3 mph NE3.7 kmh NE 3.5 mph5.6 kmh 29.97 in1014.9 mb - 0.00 in0.0 mm 0.00 in0.0 mm
08:00 AM 69.1°F20.6°C 62.7°F17.1°C 80% 4.6 mph NNE7.4 kmh NNE 8.1 mph13.0 kmh 29.97 in1014.9 mb - 0.00 in0.0 mm 0.00 in0.0 mm
08:05 AM 69.1°F20.6°C 61.9°F16.6°C 78% 5.8 mph ENE9.3 kmh ENE 8.1 mph13.0 kmh 29.97 in1014.9 mb - 0.00 in0.0 mm 0.00 in0.0 mm
08:10 AM 69.1°F20.6°C 61.9°F16.6°C 78% 3.5 mph NE5.6 kmh NE 9.2 mph14.8 kmh 29.97 in1014.9 mb - 0.00 in0.0 mm 0.00 in0.0 mm
08:15 AM 69.1°F20.6°C 61.6°F16.4°C 77% 5.8 mph NE9.3 kmh NE 10.4 mph16.7 kmh 29.97 in1014.9 mb - 0.00 in0.0 mm 0.00 in0.0 mm
08:20 AM 69.2°F20.7°C 61.7°F16.5°C 77% 4.6 mph NE7.4 kmh NE 6.9 mph11.1 kmh 29.97 in1014.9 mb - 0.00 in0.0 mm 0.00 in0.0 mm
08:25 AM 69.3°F20.7°C 61.8°F16.6°C 77% 2.3 mph NE3.7 kmh NE 4.6 mph7.4 kmh 29.97 in1014.9 mb - 0.00 in0.0 mm 0.00 in0.0 mm
08:30 AM 69.3°F20.7°C 61.4°F16.3°C 76% 4.6 mph NE7.4 kmh NE 5.8 mph9.3 kmh 29.97 in1014.9 mb - 0.00 in0.0 mm 0.00 in0.0 mm
08:35 AM 69.4°F20.8°C 62.2°F16.8°C 78% 1.2 mph ENE1.9 kmh ENE 4.6 mph7.4 kmh 29.98 in1015.2 mb - 0.00 in0.0 mm 0.00 in0.0 mm
08:40 AM 69.5°F20.8°C 61.6°F16.4°C 76% 3.5 mph NE5.6 kmh NE 5.8 mph9.3 kmh 29.98 in1015.2 mb - 0.00 in0.0 mm 0.00 in0.0 mm
08:45 AM 69.7°F20.9°C 62.5°F16.9°C 78% 3.5 mph NE5.6 kmh NE 4.6 mph7.4 kmh 29.97 in1014.9 mb - 0.00 in0.0 mm 0.00 in0.0 mm
08:50 AM 70.0°F21.1°C 62.1°F16.7°C 76% 3.5 mph NE5.6 kmh NE 3.5 mph5.6 kmh 29.97 in1014.9 mb - 0.00 in0.0 mm 0.00 in0.0 mm
08:55 AM 70.0°F21.1°C 61.7°F16.5°C 75% 6.9 mph NE11.1 kmh NE 11.5 mph18.5 kmh 29.98 in1015.2 mb - 0.00 in0.0 mm 0.00 in0.0 mm
09:00 AM 70.0°F21.1°C 60.9°F16.1°C 73% 6.9 mph NE11.1 kmh NE 8.1 mph13.0 kmh 29.98 in1015.2 mb - 0.00 in0.0 mm 0.00 in0.0 mm
09:05 AM 69.9°F21.1°C 61.2°F16.2°C 74% 5.8 mph NE9.3 kmh NE 10.4 mph16.7 kmh 29.98 in1015.2 mb - 0.00 in0.0 mm 0.00 in0.0 mm
09:10 AM 69.8°F21.0°C 60.8°F16.0°C 73% 4.6 mph NNE7.4 kmh NNE 8.1 mph13.0 kmh 29.98 in1015.2 mb - 0.00 in0.0 mm 0.00 in0.0 mm
09:15 AM 69.8°F21.0°C 61.1°F16.2°C 74% 2.3 mph NE3.7 kmh NE 3.5 mph5.6 kmh 29.98 in1015.2 mb - 0.00 in0.0 mm 0.00 in0.0 mm
09:20 AM 69.8°F21.0°C 60.8°F16.0°C 73% 8.1 mph NE13.0 kmh NE 10.4 mph16.7 kmh 29.98 in1015.2 mb - 0.00 in0.0 mm 0.00 in0.0 mm
09:25 AM 69.8°F21.0°C 61.1°F16.2°C 74% 5.8 mph NE9.3 kmh NE 11.5 mph18.5 kmh 29.98 in1015.2 mb - 0.00 in0.0 mm 0.00 in0.0 mm
09:30 AM 69.9°F21.1°C 60.8°F16.0°C 73% 5.8 mph NE9.3 kmh NE 12.7 mph20.4 kmh 29.98 in1015.2 mb - 0.00 in0.0 mm 0.00 in0.0 mm
09:35 AM 69.9°F21.1°C 60.9°F16.1°C 73% 5.8 mph NE9.3 kmh NE 12.7 mph20.4 kmh 29.98 in1015.2 mb - 0.00 in0.0 mm 0.00 in0.0 mm
09:40 AM 70.0°F21.1°C 60.6°F15.9°C 72% 5.8 mph NNE9.3 kmh NNE 10.4 mph16.7 kmh 29.98 in1015.2 mb - 0.00 in0.0 mm 0.00 in0.0 mm
09:45 AM 70.2°F21.2°C 61.2°F16.2°C 73% 6.9 mph NE11.1 kmh NE 10.4 mph16.7 kmh 29.98 in1015.2 mb - 0.00 in0.0 mm 0.00 in0.0 mm
09:50 AM 70.4°F21.3°C 60.9°F16.1°C 72% 8.1 mph NE13.0 kmh NE 11.5 mph18.5 kmh 29.98 in1015.2 mb - 0.00 in0.0 mm 0.00 in0.0 mm
09:55 AM 70.3°F21.3°C 60.9°F16.1°C 72% 8.1 mph NE13.0 kmh NE 11.5 mph18.5 kmh 29.98 in1015.2 mb - 0.00 in0.0 mm 0.00 in0.0 mm
10:00 AM 70.2°F21.2°C 60.7°F15.9°C 72% 8.1 mph NE13.0 kmh NE 11.5 mph18.5 kmh 29.98 in1015.2 mb - 0.00 in0.0 mm 0.00 in0.0 mm
10:05 AM 70.1°F21.2°C 61.0°F16.1°C 73% 4.6 mph NE7.4 kmh NE 11.5 mph18.5 kmh 29.98 in1015.2 mb - 0.00 in0.0 mm 0.00 in0.0 mm
10:10 AM 70.0°F21.1°C 61.7°F16.5°C 75% 3.5 mph NNE5.6 kmh NNE 9.2 mph14.8 kmh 29.98 in1015.2 mb - 0.00 in0.0 mm 0.00 in0.0 mm
10:15 AM 70.0°F21.1°C 61.4°F16.3°C 74% 5.8 mph NNE9.3 kmh NNE 9.2 mph14.8 kmh 29.98 in1015.2 mb - 0.00 in0.0 mm 0.00 in0.0 mm
10:20 AM 70.0°F21.1°C 61.7°F16.5°C 75% 4.6 mph NNE7.4 kmh NNE 9.2 mph14.8 kmh 29.98 in1015.2 mb - 0.00 in0.0 mm 0.00 in0.0 mm
10:25 AM 70.0°F21.1°C 61.3°F16.3°C 74% 5.8 mph N9.3 kmh N 9.2 mph14.8 kmh 29.98 in1015.2 mb - 0.00 in0.0 mm 0.00 in0.0 mm
10:30 AM 69.9°F21.1°C 61.2°F16.2°C 74% 4.6 mph N7.4 kmh N 9.2 mph14.8 kmh 29.98 in1015.2 mb - 0.00 in0.0 mm 0.00 in0.0 mm
10:35 AM 69.8°F21.0°C 61.5°F16.4°C 75% 5.8 mph N9.3 kmh N 11.5 mph18.5 kmh 29.98 in1015.2 mb - 0.00 in0.0 mm 0.00 in0.0 mm
10:40 AM 69.7°F20.9°C 61.0°F16.1°C 74% 9.2 mph N14.8 kmh N 13.8 mph22.2 kmh 29.98 in1015.2 mb - 0.00 in0.0 mm 0.00 in0.0 mm
10:45 AM 69.6°F20.9°C 61.3°F16.3°C 75% 5.8 mph N9.3 kmh N 9.2 mph14.8 kmh 29.98 in1015.2 mb - 0.00 in0.0 mm 0.00 in0.0 mm
10:50 AM 69.5°F20.8°C 61.6°F16.4°C 76% 4.6 mph N7.4 kmh N 11.5 mph18.5 kmh 29.98 in1015.2 mb - 0.00 in0.0 mm 0.00 in0.0 mm
10:55 AM 69.4°F20.8°C 61.5°F16.4°C 76% 8.1 mph N13.0 kmh N 11.5 mph18.5 kmh 29.98 in1015.2 mb - 0.00 in0.0 mm 0.00 in0.0 mm
11:00 AM 69.3°F20.7°C 62.1°F16.7°C 78% 5.8 mph N9.3 kmh N 10.4 mph16.7 kmh 29.98 in1015.2 mb - 0.00 in0.0 mm 0.00 in0.0 mm
11:05 AM 69.1°F20.6°C 61.6°F16.4°C 77% 6.9 mph N11.1 kmh N 15.0 mph24.1 kmh 29.99 in1015.6 mb - 0.00 in0.0 mm 0.00 in0.0 mm
11:10 AM 68.9°F20.5°C 61.0°F16.1°C 76% 6.9 mph N11.1 kmh N 11.5 mph18.5 kmh 29.99 in1015.6 mb - 0.00 in0.0 mm 0.00 in0.0 mm
11:15 AM 68.7°F20.4°C 61.6°F16.4°C 78% 9.2 mph N14.8 kmh N 12.7 mph20.4 kmh 29.99 in1015.6 mb - 0.00 in0.0 mm 0.00 in0.0 mm
11:20 AM 68.3°F20.2°C 61.1°F16.2°C 78% 11.5 mph NE18.5 kmh NE 16.1 mph25.9 kmh 29.98 in1015.2 mb - 0.00 in0.0 mm 0.00 in0.0 mm
11:25 AM 67.4°F19.7°C 61.0°F16.1°C 80% 9.2 mph NNE14.8 kmh NNE 15.0 mph24.1 kmh 29.98 in1015.2 mb - 0.03 in0.8 mm 0.03 in0.8 mm
11:30 AM 66.5°F19.2°C 60.8°F16.0°C 82% 10.4 mph NNE16.7 kmh NNE 18.4 mph29.6 kmh 29.98 in1015.2 mb - 0.02 in0.5 mm 0.05 in1.3 mm
11:35 AM 65.7°F18.7°C 60.4°F15.8°C 83% 10.4 mph NE16.7 kmh NE 16.1 mph25.9 kmh 29.99 in1015.6 mb - 0.02 in0.5 mm 0.07 in1.8 mm
11:40 AM 65.2°F18.4°C 60.9°F16.1°C 86% 5.8 mph NNE9.3 kmh NNE 11.5 mph18.5 kmh 29.99 in1015.6 mb - 0.05 in1.3 mm 0.11 in2.8 mm
11:45 AM 64.8°F18.2°C 60.5°F15.8°C 86% 10.4 mph NNW16.7 kmh NNW 11.5 mph18.5 kmh 29.99 in1015.6 mb - 0.04 in1.0 mm 0.13 in3.3 mm
11:50 AM 64.5°F18.1°C 61.2°F16.2°C 89% 11.5 mph NNW18.5 kmh NNW 12.7 mph20.4 kmh 30.00 in1015.9 mb - 0.02 in0.5 mm 0.15 in3.8 mm
11:55 AM 64.2°F17.9°C 61.2°F16.2°C 90% 6.9 mph N11.1 kmh N 10.4 mph16.7 kmh 29.99 in1015.6 mb - 0.02 in0.5 mm 0.17 in4.3 mm
12:00 PM 64.0°F17.8°C 60.6°F15.9°C 89% 10.4 mph N16.7 kmh N 13.8 mph22.2 kmh 30.00 in1015.9 mb - 0.02 in0.5 mm 0.17 in4.3 mm
12:05 PM 63.9°F17.7°C 60.9°F16.1°C 90% 6.9 mph N11.1 kmh N 10.4 mph16.7 kmh 30.00 in1015.9 mb - 0.01 in0.3 mm 0.18 in4.6 mm
12:10 PM 63.7°F17.6°C 61.1°F16.2°C 91% 9.2 mph N14.8 kmh N 12.7 mph20.4 kmh 29.99 in1015.6 mb - 0.00 in0.0 mm 0.18 in4.6 mm
12:15 PM 63.6°F17.6°C 60.6°F15.9°C 90% 6.9 mph N11.1 kmh N 11.5 mph18.5 kmh 29.99 in1015.6 mb - 0.00 in0.0 mm 0.18 in4.6 mm
12:20 PM 63.6°F17.6°C 60.9°F16.1°C 91% 4.6 mph N7.4 kmh N 10.4 mph16.7 kmh 29.99 in1015.6 mb - 0.01 in0.3 mm 0.19 in4.8 mm
12:25 PM 63.6°F17.6°C 60.9°F16.1°C 91% 3.5 mph NW5.6 kmh NW 3.5 mph5.6 kmh 30.01 in1016.3 mb - 0.00 in0.0 mm 0.19 in4.8 mm
12:30 PM 63.6°F17.6°C 60.9°F16.1°C 91% 6.9 mph NNW11.1 kmh NNW 10.4 mph16.7 kmh 30.01 in1016.3 mb - 0.00 in0.0 mm 0.19 in4.8 mm
12:35 PM 63.7°F17.6°C 61.0°F16.1°C 91% 3.5 mph NNW5.6 kmh NNW 8.1 mph13.0 kmh 30.02 in1016.6 mb - 0.00 in0.0 mm 0.19 in4.8 mm
12:40 PM 63.7°F17.6°C 61.0°F16.1°C 91% 4.6 mph N7.4 kmh N 9.2 mph14.8 kmh 30.01 in1016.3 mb - 0.00 in0.0 mm 0.19 in4.8 mm
12:45 PM 63.7°F17.6°C 61.0°F16.1°C 91% 6.9 mph N11.1 kmh N 10.4 mph16.7 kmh 30.01 in1016.3 mb - 0.00 in0.0 mm 0.19 in4.8 mm
12:50 PM 63.6°F17.6°C 60.6°F15.9°C 90% 8.1 mph NNE13.0 kmh NNE 10.4 mph16.7 kmh 30.00 in1015.9 mb - 0.00 in0.0 mm 0.19 in4.8 mm
12:55 PM 63.6°F17.6°C 60.6°F15.9°C 90% 8.1 mph N13.0 kmh N 11.5 mph18.5 kmh 30.01 in1016.3 mb - 0.00 in0.0 mm 0.19 in4.8 mm
01:00 PM 63.5°F17.5°C 60.2°F15.7°C 89% 10.4 mph N16.7 kmh N 12.7 mph20.4 kmh 30.00 in1015.9 mb - 0.01 in0.3 mm 0.20 in5.1 mm
01:05 PM 63.3°F17.4°C 60.3°F15.7°C 90% 9.2 mph NE14.8 kmh NE 13.8 mph22.2 kmh 30.00 in1015.9 mb - 0.01 in0.3 mm 0.21 in5.3 mm
01:10 PM 63.2°F17.3°C 60.2°F15.7°C 90% 8.1 mph NE13.0 kmh NE 13.8 mph22.2 kmh 29.99 in1015.6 mb - 0.00 in0.0 mm 0.21 in5.3 mm
01:15 PM 63.1°F17.3°C 60.1°F15.6°C 90% 9.2 mph NE14.8 kmh NE 12.7 mph20.4 kmh 29.98 in1015.2 mb - 0.00 in0.0 mm 0.21 in5.3 mm
01:20 PM 63.0°F17.2°C 60.0°F15.6°C 90% 6.9 mph NE11.1 kmh NE 11.5 mph18.5 kmh 29.98 in1015.2 mb - 0.01 in0.3 mm 0.21 in5.3 mm
01:25 PM 62.9°F17.2°C 59.6°F15.3°C 89% 2.3 mph NNE3.7 kmh NNE 6.9 mph11.1 kmh 30.00 in1015.9 mb - 0.00 in0.0 mm 0.21 in5.3 mm
01:30 PM 62.8°F17.1°C 59.5°F15.3°C 89% 5.8 mph NNE9.3 kmh NNE 9.2 mph14.8 kmh 30.00 in1015.9 mb - 0.01 in0.3 mm 0.22 in5.6 mm
01:35 PM 62.7°F17.1°C 59.5°F15.3°C 89% 5.8 mph NNW9.3 kmh NNW 10.4 mph16.7 kmh 30.01 in1016.3 mb - 0.01 in0.3 mm 0.23 in5.8 mm
01:40 PM 62.7°F17.1°C 59.4°F15.2°C 89% 3.5 mph NW5.6 kmh NW 4.6 mph7.4 kmh 30.02 in1016.6 mb - 0.01 in0.3 mm 0.24 in6.1 mm
01:45 PM 62.7°F17.1°C 59.7°F15.4°C 90% 2.3 mph NNW3.7 kmh NNW 3.5 mph5.6 kmh 30.01 in1016.3 mb - 0.00 in0.0 mm 0.24 in6.1 mm
01:50 PM 62.7°F17.1°C 59.7°F15.4°C 90% 5.8 mph N9.3 kmh N 8.1 mph13.0 kmh 30.00 in1015.9 mb - 0.00 in0.0 mm 0.24 in6.1 mm
01:55 PM 62.5°F16.9°C 59.5°F15.3°C 90% 8.1 mph N13.0 kmh N 10.4 mph16.7 kmh 29.99 in1015.6 mb - 0.00 in0.0 mm 0.24 in6.1 mm
02:00 PM 62.4°F16.9°C 59.4°F15.2°C 90% 4.6 mph N7.4 kmh N 10.4 mph16.7 kmh 30.00 in1015.9 mb - 0.00 in0.0 mm 0.24 in6.1 mm
02:05 PM 62.4°F16.9°C 59.4°F15.2°C 90% 3.5 mph N5.6 kmh N 4.6 mph7.4 kmh 30.00 in1015.9 mb - 0.00 in0.0 mm 0.24 in6.1 mm
02:10 PM 62.5°F16.9°C 59.5°F15.3°C 90% 3.5 mph N5.6 kmh N 4.6 mph7.4 kmh 30.00 in1015.9 mb - 0.00 in0.0 mm 0.24 in6.1 mm
02:15 PM 62.5°F16.9°C 59.5°F15.3°C 90% 2.3 mph N3.7 kmh N 4.6 mph7.4 kmh 30.00 in1015.9 mb - 0.00 in0.0 mm 0.24 in6.1 mm
02:20 PM 62.5°F16.9°C 59.5°F15.3°C 90% 4.6 mph NNW7.4 kmh NNW 5.8 mph9.3 kmh 30.01 in1016.3 mb - 0.00 in0.0 mm 0.24 in6.1 mm
02:25 PM 62.6°F17.0°C 59.6°F15.3°C 90% 3.5 mph N5.6 kmh N 4.6 mph7.4 kmh 30.01 in1016.3 mb - 0.00 in0.0 mm 0.24 in6.1 mm
02:30 PM 62.8°F17.1°C 59.8°F15.4°C 90% 4.6 mph N7.4 kmh N 8.1 mph13.0 kmh 30.01 in1016.3 mb - 0.00 in0.0 mm 0.24 in6.1 mm
02:35 PM 62.9°F17.2°C 60.2°F15.7°C 91% 3.5 mph N5.6 kmh N 3.5 mph5.6 kmh 30.00 in1015.9 mb - 0.00 in0.0 mm 0.24 in6.1 mm
02:40 PM 62.9°F17.2°C 59.9°F15.5°C 90% 3.5 mph N5.6 kmh N 4.6 mph7.4 kmh 30.00 in1015.9 mb - 0.00 in0.0 mm 0.24 in6.1 mm
02:45 PM 62.9°F17.2°C 60.2°F15.7°C 91% 2.3 mph N3.7 kmh N 3.5 mph5.6 kmh 30.00 in1015.9 mb - 0.00 in0.0 mm 0.24 in6.1 mm
02:50 PM 62.9°F17.2°C 60.3°F15.7°C 91% 3.5 mph NNW5.6 kmh NNW 4.6 mph7.4 kmh 30.00 in1015.9 mb - 0.00 in0.0 mm 0.24 in6.1 mm
02:55 PM 63.0°F17.2°C 60.3°F15.7°C 91% 3.5 mph NNW5.6 kmh NNW 4.6 mph7.4 kmh 30.00 in1015.9 mb - 0.00 in0.0 mm 0.24 in6.1 mm
03:00 PM 63.1°F17.3°C 60.4°F15.8°C 91% 3.5 mph NNW5.6 kmh NNW 4.6 mph7.4 kmh 30.00 in1015.9 mb - 0.00 in0.0 mm 0.24 in6.1 mm
03:05 PM 63.2°F17.3°C 60.2°F15.7°C 90% 3.5 mph NW5.6 kmh NW 4.6 mph7.4 kmh 30.00 in1015.9 mb - 0.00 in0.0 mm 0.24 in6.1 mm
03:10 PM 63.3°F17.4°C 60.3°F15.7°C 90% 1.2 mph NNW1.9 kmh NNW 2.3 mph3.7 kmh 30.00 in1015.9 mb - 0.00 in0.0 mm 0.24 in6.1 mm
03:15 PM 63.3°F17.4°C 60.3°F15.7°C 90% 1.2 mph NNW1.9 kmh NNW 3.5 mph5.6 kmh 30.00 in1015.9 mb - 0.00 in0.0 mm 0.24 in6.1 mm
03:20 PM 63.3°F17.4°C 60.6°F15.9°C 91% 1.2 mph NW1.9 kmh NW 1.2 mph1.9 kmh 30.00 in1015.9 mb - 0.00 in0.0 mm 0.24 in6.1 mm
03:25 PM 63.4°F17.4°C 60.7°F15.9°C 91% Calm Calm 3.5 mph5.6 kmh 30.00 in1015.9 mb - 0.00 in0.0 mm 0.24 in6.1 mm
03:30 PM 63.5°F17.5°C 60.8°F16.0°C 91% 1.2 mph NW1.9 kmh NW 2.3 mph3.7 kmh 30.00 in1015.9 mb - 0.00 in0.0 mm 0.24 in6.1 mm
03:35 PM 63.6°F17.6°C 60.9°F16.1°C 91% 1.2 mph NNW1.9 kmh NNW 3.5 mph5.6 kmh 30.00 in1015.9 mb - 0.00 in0.0 mm 0.24 in6.1 mm
03:40 PM 63.8°F17.7°C 61.1°F16.2°C 91% 3.5 mph NW5.6 kmh NW 3.5 mph5.6 kmh 30.00 in1015.9 mb - 0.00 in0.0 mm 0.24 in6.1 mm
03:45 PM 64.0°F17.8°C 61.3°F16.3°C 91% 3.5 mph NW5.6 kmh NW 4.6 mph7.4 kmh 30.01 in1016.3 mb - 0.00 in0.0 mm 0.24 in6.1 mm
03:50 PM 64.2°F17.9°C 61.2°F16.2°C 90% 3.5 mph NW5.6 kmh NW 4.6 mph7.4 kmh 30.02 in1016.6 mb - 0.00 in0.0 mm 0.24 in6.1 mm
03:55 PM 64.3°F17.9°C 61.3°F16.3°C 90% 3.5 mph NW5.6 kmh NW 8.1 mph13.0 kmh 30.02 in1016.6 mb - 0.00 in0.0 mm 0.24 in6.1 mm
04:00 PM 64.4°F18.0°C 61.7°F16.5°C 91% 3.5 mph NW5.6 kmh NW 5.8 mph9.3 kmh 30.02 in1016.6 mb - 0.00 in0.0 mm 0.24 in6.1 mm
04:05 PM 64.6°F18.1°C 61.6°F16.4°C 90% 3.5 mph NW5.6 kmh NW 8.1 mph13.0 kmh 30.02 in1016.6 mb - 0.00 in0.0 mm 0.24 in6.1 mm
04:10 PM 64.7°F18.2°C 61.7°F16.5°C 90% 3.5 mph NNW5.6 kmh NNW 5.8 mph9.3 kmh 30.03 in1016.9 mb - 0.00 in0.0 mm 0.24 in6.1 mm
04:15 PM 64.8°F18.2°C 61.5°F16.4°C 89% 2.3 mph NW3.7 kmh NW 4.6 mph7.4 kmh 30.02 in1016.6 mb - 0.00 in0.0 mm 0.24 in6.1 mm
04:20 PM 64.9°F18.3°C 61.9°F16.6°C 90% 2.3 mph NW3.7 kmh NW 3.5 mph5.6 kmh 30.02 in1016.6 mb - 0.00 in0.0 mm 0.24 in6.1 mm
04:25 PM 65.0°F18.3°C 61.7°F16.5°C 89% 1.2 mph NW1.9 kmh NW 3.5 mph5.6 kmh 30.02 in1016.6 mb - 0.00 in0.0 mm 0.24 in6.1 mm
04:30 PM 65.1°F18.4°C 61.5°F16.4°C 88% 1.2 mph NW1.9 kmh NW 3.5 mph5.6 kmh 30.02 in1016.6 mb - 0.00 in0.0 mm 0.24 in6.1 mm
04:35 PM 65.4°F18.6°C 62.4°F16.9°C 90% Calm Calm 2.3 mph3.7 kmh 30.02 in1016.6 mb - 0.00 in0.0 mm 0.24 in6.1 mm
04:40 PM 65.6°F18.7°C 62.6°F17.0°C 90% Calm Calm 2.3 mph3.7 kmh 30.02 in1016.6 mb - 0.01 in0.3 mm 0.24 in6.1 mm
04:45 PM 65.9°F18.8°C 62.2°F16.8°C 88% Calm Calm 2.3 mph3.7 kmh 30.01 in1016.3 mb - 0.01 in0.3 mm 0.24 in6.1 mm
04:50 PM 66.1°F18.9°C 62.1°F16.7°C 87% Calm Calm 3.5 mph5.6 kmh 30.01 in1016.3 mb - 0.00 in0.0 mm 0.24 in6.1 mm
04:55 PM 66.4°F19.1°C 62.1°F16.7°C 86% 3.5 mph NNE5.6 kmh NNE 4.6 mph7.4 kmh 30.00 in1015.9 mb - 0.00 in0.0 mm 0.24 in6.1 mm
05:00 PM 66.6°F19.2°C 62.6°F17.0°C 87% Calm Calm -- 30.00 in1015.9 mb - 0.00 in0.0 mm 0.24 in6.1 mm
05:05 PM 66.7°F19.3°C 61.7°F16.5°C 84% 1.2 mph NNE1.9 kmh NNE 2.3 mph3.7 kmh 30.00 in1015.9 mb - 0.00 in0.0 mm 0.24 in6.1 mm
05:10 PM 66.7°F19.3°C 62.0°F16.7°C 85% 2.3 mph E3.7 kmh E 3.5 mph5.6 kmh 29.99 in1015.6 mb - 0.00 in0.0 mm 0.24 in6.1 mm
05:15 PM 66.6°F19.2°C 61.9°F16.6°C 85% 4.6 mph ENE7.4 kmh ENE 5.8 mph9.3 kmh 29.98 in1015.2 mb - 0.00 in0.0 mm 0.24 in6.1 mm
05:20 PM 66.6°F19.2°C 62.3°F16.8°C 86% 1.2 mph NE1.9 kmh NE 2.3 mph3.7 kmh 29.98 in1015.2 mb - 0.00 in0.0 mm 0.24 in6.1 mm
05:25 PM 66.7°F19.3°C 61.7°F16.5°C 84% 1.2 mph N1.9 kmh N 3.5 mph5.6 kmh 29.99 in1015.6 mb - 0.00 in0.0 mm 0.24 in6.1 mm
05:30 PM 67.2°F19.6°C 62.2°F16.8°C 84% 1.2 mph NE1.9 kmh NE 3.5 mph5.6 kmh 29.99 in1015.6 mb - 0.00 in0.0 mm 0.24 in6.1 mm
05:35 PM 67.7°F19.8°C 62.4°F16.9°C 83% 3.5 mph NNE5.6 kmh NNE 6.9 mph11.1 kmh 29.99 in1015.6 mb - 0.00 in0.0 mm 0.24 in6.1 mm
05:40 PM 67.8°F19.9°C 61.4°F16.3°C 80% 3.5 mph N5.6 kmh N 4.6 mph7.4 kmh 29.99 in1015.6 mb - 0.00 in0.0 mm 0.24 in6.1 mm
05:45 PM 67.7°F19.8°C 60.6°F15.9°C 78% 4.6 mph N7.4 kmh N 4.6 mph7.4 kmh 30.00 in1015.9 mb - 0.00 in0.0 mm 0.24 in6.1 mm
05:50 PM 67.5°F19.7°C 60.4°F15.8°C 78% 3.5 mph N5.6 kmh N 4.6 mph7.4 kmh 30.00 in1015.9 mb - 0.00 in0.0 mm 0.24 in6.1 mm
05:55 PM 67.5°F19.7°C 61.1°F16.2°C 80% 3.5 mph N5.6 kmh N 6.9 mph11.1 kmh 30.00 in1015.9 mb - 0.00 in0.0 mm 0.24 in6.1 mm
06:00 PM 67.5°F19.7°C 60.8°F16.0°C 79% 2.3 mph N3.7 kmh N 4.6 mph7.4 kmh 30.00 in1015.9 mb - 0.00 in0.0 mm 0.24 in6.1 mm
06:05 PM 67.8°F19.9°C 60.7°F15.9°C 78% 3.5 mph N5.6 kmh N 4.6 mph7.4 kmh 30.00 in1015.9 mb - 0.00 in0.0 mm 0.24 in6.1 mm
06:10 PM 68.0°F20.0°C 60.9°F16.1°C 78% 3.5 mph N5.6 kmh N 9.2 mph14.8 kmh 30.00 in1015.9 mb - 0.00 in0.0 mm 0.24 in6.1 mm
06:15 PM 67.9°F19.9°C 60.4°F15.8°C 77% 4.6 mph N7.4 kmh N 9.2 mph14.8 kmh 30.01 in1016.3 mb - 0.00 in0.0 mm 0.24 in6.1 mm
06:20 PM 67.8°F19.9°C 59.9°F15.5°C 76% 3.5 mph N5.6 kmh N 4.6 mph7.4 kmh 30.01 in1016.3 mb - 0.00 in0.0 mm 0.24 in6.1 mm
06:25 PM 67.9°F19.9°C 60.1°F15.6°C 76% 4.6 mph N7.4 kmh N 8.1 mph13.0 kmh 30.01 in1016.3 mb - 0.00 in0.0 mm 0.24 in6.1 mm
06:30 PM 68.3°F20.2°C 60.4°F15.8°C 76% 4.6 mph N7.4 kmh N 5.8 mph9.3 kmh 30.01 in1016.3 mb - 0.00 in0.0 mm 0.24 in6.1 mm
06:35 PM 68.6°F20.3°C 59.9°F15.5°C 74% 4.6 mph N7.4 kmh N 5.8 mph9.3 kmh 30.01 in1016.3 mb - 0.00 in0.0 mm 0.24 in6.1 mm
06:40 PM 68.5°F20.3°C 59.8°F15.4°C 74% 4.6 mph 7.4 kmh 8.1 mph13.0 kmh 30.01 in1016.3 mb - 0.00 in0.0 mm 0.24 in6.1 mm
06:45 PM 68.2°F20.1°C 59.2°F15.1°C 73% 4.6 mph N7.4 kmh N 9.2 mph14.8 kmh 30.01 in1016.3 mb - 0.00 in0.0 mm 0.24 in6.1 mm
06:50 PM 67.8°F19.9°C 59.2°F15.1°C 74% 3.5 mph N5.6 kmh N 4.6 mph7.4 kmh 30.01 in1016.3 mb - 0.00 in0.0 mm 0.24 in6.1 mm
06:55 PM 67.3°F19.6°C 59.1°F15.1°C 75% 3.5 mph N5.6 kmh N 5.8 mph9.3 kmh 30.01 in1016.3 mb - 0.00 in0.0 mm 0.24 in6.1 mm
07:00 PM 66.8°F19.3°C 58.6°F14.8°C 75% 3.5 mph N5.6 kmh N 10.4 mph16.7 kmh 30.01 in1016.3 mb - 0.00 in0.0 mm 0.24 in6.1 mm
07:05 PM 66.4°F19.1°C 58.2°F14.6°C 75% 4.6 mph N7.4 kmh N 5.8 mph9.3 kmh 30.02 in1016.6 mb - 0.00 in0.0 mm 0.24 in6.1 mm
07:10 PM 66.0°F18.9°C 57.8°F14.3°C 75% 3.5 mph N5.6 kmh N 4.6 mph7.4 kmh 30.02 in1016.6 mb - 0.00 in0.0 mm 0.24 in6.1 mm
07:15 PM 65.7°F18.7°C 57.6°F14.2°C 75% 2.3 mph NNW3.7 kmh NNW 3.5 mph5.6 kmh 30.02 in1016.6 mb - 0.00 in0.0 mm 0.24 in6.1 mm
07:20 PM 65.5°F18.6°C 58.1°F14.5°C 77% Calm Calm 2.3 mph3.7 kmh 30.02 in1016.6 mb - 0.00 in0.0 mm 0.24 in6.1 mm
07:25 PM 65.4°F18.6°C 58.0°F14.4°C 77% Calm Calm -- 30.02 in1016.6 mb - 0.00 in0.0 mm 0.24 in6.1 mm
07:30 PM 65.2°F18.4°C 58.5°F14.7°C 79% Calm Calm -- 30.02 in1016.6 mb - 0.00 in0.0 mm 0.24 in6.1 mm
07:35 PM 65.0°F18.3°C 58.4°F14.7°C 79% Calm Calm -- 30.02 in1016.6 mb - 0.00 in0.0 mm 0.24 in6.1 mm
07:40 PM 64.9°F18.3°C 59.2°F15.1°C 82% Calm Calm -- 30.02 in1016.6 mb - 0.00 in0.0 mm 0.24 in6.1 mm
07:45 PM 64.6°F18.1°C 59.0°F15.0°C 82% Calm Calm -- 30.02 in1016.6 mb - 0.00 in0.0 mm 0.24 in6.1 mm
07:50 PM 64.4°F18.0°C 59.1°F15.1°C 83% Calm Calm -- 30.02 in1016.6 mb - 0.00 in0.0 mm 0.24 in6.1 mm
07:55 PM 64.2°F17.9°C 59.3°F15.2°C 84% Calm Calm -- 30.02 in1016.6 mb - 0.00 in0.0 mm 0.24 in6.1 mm
08:00 PM 64.1°F17.8°C 58.8°F14.9°C 83% Calm Calm -- 30.02 in1016.6 mb - 0.00 in0.0 mm 0.24 in6.1 mm
08:05 PM 64.0°F17.8°C 59.4°F15.2°C 85% Calm Calm -- 30.02 in1016.6 mb - 0.00 in0.0 mm 0.24 in6.1 mm
08:10 PM 63.8°F17.7°C 59.2°F15.1°C 85% Calm Calm -- 30.02 in1016.6 mb - 0.00 in0.0 mm 0.24 in6.1 mm
08:15 PM 63.6°F17.6°C 59.0°F15.0°C 85% Calm Calm -- 30.03 in1016.9 mb - 0.00 in0.0 mm 0.24 in6.1 mm
08:20 PM 63.5°F17.5°C 58.6°F14.8°C 84% Calm Calm -- 30.03 in1016.9 mb - 0.00 in0.0 mm 0.24 in6.1 mm
08:25 PM 63.4°F17.4°C 58.8°F14.9°C 85% Calm Calm -- 30.03 in1016.9 mb - 0.00 in0.0 mm 0.24 in6.1 mm
08:30 PM 63.3°F17.4°C 58.7°F14.8°C 85% Calm Calm -- 30.03 in1016.9 mb - 0.00 in0.0 mm 0.24 in6.1 mm
08:35 PM 63.2°F17.3°C 58.9°F14.9°C 86% Calm Calm -- 30.04 in1017.3 mb - 0.00 in0.0 mm 0.24 in6.1 mm
08:40 PM 63.0°F17.2°C 58.4°F14.7°C 85% Calm Calm -- 30.04 in1017.3 mb - 0.00 in0.0 mm 0.24 in6.1 mm
08:45 PM 62.8°F17.1°C 58.5°F14.7°C 86% Calm Calm -- 30.04 in1017.3 mb - 0.00 in0.0 mm 0.24 in6.1 mm
08:50 PM 62.7°F17.1°C 58.4°F14.7°C 86% Calm Calm -- 30.04 in1017.3 mb - 0.00 in0.0 mm 0.24 in6.1 mm
08:55 PM 62.5°F16.9°C 58.3°F14.6°C 86% Calm Calm -- 30.04 in1017.3 mb - 0.00 in0.0 mm 0.24 in6.1 mm
09:00 PM 62.4°F16.9°C 58.5°F14.7°C 87% Calm Calm -- 30.04 in1017.3 mb - 0.00 in0.0 mm 0.24 in6.1 mm
09:05 PM 62.2°F16.8°C 58.6°F14.8°C 88% Calm Calm -- 30.04 in1017.3 mb - 0.00 in0.0 mm 0.24 in6.1 mm
09:10 PM 62.1°F16.7°C 58.5°F14.7°C 88% Calm Calm -- 30.04 in1017.3 mb - 0.00 in0.0 mm 0.24 in6.1 mm
09:15 PM 62.0°F16.7°C 58.7°F14.8°C 89% Calm Calm -- 30.05 in1017.6 mb - 0.00 in0.0 mm 0.24 in6.1 mm
09:20 PM 61.9°F16.6°C 58.6°F14.8°C 89% Calm Calm -- 30.05 in1017.6 mb - 0.00 in0.0 mm 0.24 in6.1 mm
09:25 PM 61.8°F16.6°C 58.8°F14.9°C 90% Calm Calm -- 30.05 in1017.6 mb - 0.00 in0.0 mm 0.24 in6.1 mm
09:30 PM 61.8°F16.6°C 58.8°F14.9°C 90% Calm Calm -- 30.05 in1017.6 mb - 0.00 in0.0 mm 0.24 in6.1 mm
09:35 PM 61.8°F16.6°C 58.5°F14.7°C 89% Calm Calm -- 30.05 in1017.6 mb - 0.00 in0.0 mm 0.24 in6.1 mm
09:40 PM 61.7°F16.5°C 58.4°F14.7°C 89% Calm Calm -- 30.05 in1017.6 mb - 0.00 in0.0 mm 0.24 in6.1 mm
09:45 PM 61.6°F16.4°C 58.3°F14.6°C 89% Calm Calm -- 30.05 in1017.6 mb - 0.00 in0.0 mm 0.24 in6.1 mm
09:50 PM 61.5°F16.4°C 58.2°F14.6°C 89% Calm Calm -- 30.05 in1017.6 mb - 0.00 in0.0 mm 0.24 in6.1 mm
09:55 PM 61.4°F16.3°C 58.4°F14.7°C 90% Calm Calm -- 30.05 in1017.6 mb - 0.00 in0.0 mm 0.24 in6.1 mm
10:00 PM 61.2°F16.2°C 58.2°F14.6°C 90% Calm Calm -- 30.05 in1017.6 mb - 0.00 in0.0 mm 0.24 in6.1 mm
10:05 PM 61.0°F16.1°C 58.3°F14.6°C 91% Calm Calm -- 30.05 in1017.6 mb - 0.00 in0.0 mm 0.24 in6.1 mm
10:10 PM 60.7°F15.9°C 58.1°F14.5°C 91% Calm Calm -- 30.05 in1017.6 mb - 0.00 in0.0 mm 0.24 in6.1 mm
10:15 PM 60.5°F15.8°C 58.2°F14.6°C 92% Calm Calm -- 30.06 in1017.9 mb - 0.00 in0.0 mm 0.24 in6.1 mm
10:20 PM 60.4°F15.8°C 58.1°F14.5°C 92% Calm Calm 2.3 mph3.7 kmh 30.05 in1017.6 mb - 0.00 in0.0 mm 0.24 in6.1 mm
10:25 PM 60.4°F15.8°C 58.1°F14.5°C 92% 3.5 mph WSW5.6 kmh WSW 3.5 mph5.6 kmh 30.05 in1017.6 mb - 0.00 in0.0 mm 0.24 in6.1 mm
10:30 PM 60.4°F15.8°C 57.8°F14.3°C 91% 1.2 mph W1.9 kmh W 3.5 mph5.6 kmh 30.05 in1017.6 mb - 0.00 in0.0 mm 0.24 in6.1 mm
10:35 PM 60.4°F15.8°C 57.8°F14.3°C 91% 1.2 mph W1.9 kmh W 3.5 mph5.6 kmh 30.06 in1017.9 mb - 0.00 in0.0 mm 0.24 in6.1 mm
10:40 PM 60.4°F15.8°C 58.1°F14.5°C 92% 1.2 mph W1.9 kmh W 3.5 mph5.6 kmh 30.06 in1017.9 mb - 0.00 in0.0 mm 0.24 in6.1 mm
10:45 PM 60.4°F15.8°C 58.1°F14.5°C 92% 1.2 mph W1.9 kmh W 2.3 mph3.7 kmh 30.06 in1017.9 mb - 0.00 in0.0 mm 0.24 in6.1 mm
10:50 PM 60.4°F15.8°C 58.4°F14.7°C 93% Calm Calm 2.3 mph3.7 kmh 30.06 in1017.9 mb - 0.00 in0.0 mm 0.24 in6.1 mm
10:55 PM 60.5°F15.8°C 58.5°F14.7°C 93% 1.2 mph W1.9 kmh W 2.3 mph3.7 kmh 30.06 in1017.9 mb - 0.00 in0.0 mm 0.24 in6.1 mm
11:00 PM 60.6°F15.9°C 58.6°F14.8°C 93% 1.2 mph W1.9 kmh W 1.2 mph1.9 kmh 30.06 in1017.9 mb - 0.00 in0.0 mm 0.32 in8.1 mm
11:05 PM 60.6°F15.9°C 58.6°F14.8°C 93% Calm Calm 3.5 mph5.6 kmh 30.06 in1017.9 mb - 0.00 in0.0 mm 0.32 in8.1 mm
11:10 PM 60.7°F15.9°C 58.7°F14.8°C 93% Calm Calm 2.3 mph3.7 kmh 30.06 in1017.9 mb - 0.00 in0.0 mm 0.32 in8.1 mm
11:15 PM 60.7°F15.9°C 58.7°F14.8°C 93% Calm Calm 3.5 mph5.6 kmh 30.06 in1017.9 mb - 0.00 in0.0 mm 0.32 in8.1 mm
11:20 PM 60.8°F16.0°C 58.7°F14.8°C 93% 1.2 mph W1.9 kmh W 1.2 mph1.9 kmh 30.06 in1017.9 mb - 0.00 in0.0 mm 0.32 in8.1 mm
11:25 PM 60.7°F15.9°C 58.7°F14.8°C 93% Calm Calm 1.2 mph1.9 kmh 30.06 in1017.9 mb - 0.00 in0.0 mm 0.32 in8.1 mm
11:30 PM 60.7°F15.9°C 58.7°F14.8°C 93% 2.3 mph WNW3.7 kmh WNW 3.5 mph5.6 kmh 30.06 in1017.9 mb - 0.00 in0.0 mm 0.32 in8.1 mm
11:35 PM 60.8°F16.0°C 59.1°F15.1°C 94% 1.2 mph W1.9 kmh W 3.5 mph5.6 kmh 30.05 in1017.6 mb - 0.00 in0.0 mm 0.32 in8.1 mm
11:40 PM 61.0°F16.1°C 59.3°F15.2°C 94% 1.2 mph WNW1.9 kmh WNW 3.5 mph5.6 kmh 30.05 in1017.6 mb - 0.00 in0.0 mm 0.32 in8.1 mm
11:45 PM 61.1°F16.2°C 59.1°F15.1°C 93% 1.2 mph WNW1.9 kmh WNW 3.5 mph5.6 kmh 30.05 in1017.6 mb - 0.00 in0.0 mm 0.32 in8.1 mm
11:50 PM 61.2°F16.2°C 59.2°F15.1°C 93% Calm Calm 1.2 mph1.9 kmh 30.05 in1017.6 mb - 0.00 in0.0 mm 0.32 in8.1 mm
11:55 PM 61.3°F16.3°C 59.3°F15.2°C 93% Calm Calm -- 30.05 in1017.6 mb - 0.00 in0.0 mm 0.32 in8.1 mm